createdAt,value
2023-01-22T00:01:37.849Z,18.42
2023-01-22T00:04:21.007Z,18.23
2023-01-22T00:07:04.315Z,16.85
2023-01-22T00:09:41.805Z,21.35
2023-01-22T00:12:19.799Z,18.20
2023-01-22T00:14:57.865Z,17.70
2023-01-22T00:17:44.714Z,17.73
2023-01-22T00:20:28.198Z,18.00
2023-01-22T00:23:13.015Z,18.55
2023-01-22T00:25:56.779Z,19.80
2023-01-22T00:28:34.530Z,18.92
2023-01-22T00:31:16.268Z,19.48
2023-01-22T00:34:01.320Z,18.23
2023-01-22T00:36:47.282Z,21.67
2023-01-22T00:39:27.846Z,35.38
2023-01-22T00:42:13.684Z,26.95
2023-01-22T00:45:00.089Z,25.55
2023-01-22T00:47:40.617Z,22.65
2023-01-22T00:50:17.046Z,19.52
2023-01-22T00:52:53.411Z,19.63
2023-01-22T00:55:30.812Z,19.33
2023-01-22T00:58:04.333Z,17.80
2023-01-22T01:00:49.376Z,18.17
2023-01-22T01:03:30.930Z,15.48
2023-01-22T01:06:20.086Z,19.35
2023-01-22T01:08:56.354Z,19.95
2023-01-22T01:11:37.178Z,19.08
2023-01-22T01:14:19.384Z,21.60
2023-01-22T01:16:59.016Z,22.38
2023-01-22T01:19:34.319Z,19.80
2023-01-22T01:22:13.826Z,20.42
2023-01-22T01:24:49.025Z,18.13
2023-01-22T01:27:24.941Z,19.45
2023-01-22T01:29:51.965Z,19.00
2023-01-22T01:32:25.354Z,18.55
2023-01-22T01:37:40.683Z,18.17
2023-01-22T01:40:18.960Z,14.85
2023-01-22T01:43:00.446Z,17.55
2023-01-22T01:45:41.969Z,18.40
2023-01-22T01:48:32.103Z,17.35
2023-01-22T01:51:37.846Z,16.83
2023-01-22T01:54:23.163Z,19.60
2023-01-22T01:57:09.581Z,17.70
2023-01-22T01:59:50.329Z,14.63
2023-01-22T02:02:35.911Z,17.30
2023-01-22T02:05:13.272Z,15.32
2023-01-22T02:08:07.750Z,16.23
2023-01-22T02:13:25.774Z,16.25
2023-01-22T02:16:08.114Z,18.83
2023-01-22T02:18:51.584Z,17.63
2023-01-22T02:21:47.538Z,22.45
2023-01-22T02:24:25.349Z,34.45
2023-01-22T02:27:00.038Z,31.10
2023-01-22T02:29:41.525Z,21.95
2023-01-22T02:32:26.287Z,14.63
2023-01-22T02:35:15.639Z,22.42
2023-01-22T02:37:54.759Z,25.65
2023-01-22T02:40:36.800Z,24.70
2023-01-22T02:43:23.582Z,32.03
2023-01-22T02:46:02.403Z,23.40
2023-01-22T02:48:45.319Z,36.97
2023-01-22T02:51:27.325Z,31.50
2023-01-22T02:54:10.879Z,25.50
2023-01-22T02:57:00.289Z,22.73
2023-01-22T02:59:43.487Z,19.45
2023-01-22T03:02:24.985Z,20.50
2023-01-22T03:05:07.202Z,20.52
2023-01-22T03:07:54.355Z,18.27
2023-01-22T03:10:33.207Z,19.65
2023-01-22T03:13:25.380Z,21.75
2023-01-22T03:16:23.075Z,18.67
2023-01-22T03:19:18.145Z,18.33
2023-01-22T03:22:10.863Z,17.50
2023-01-22T03:24:53.179Z,19.38
2023-01-22T03:27:56.177Z,18.65
2023-01-22T03:30:34.452Z,19.13
2023-01-22T03:33:12.367Z,19.77
2023-01-22T03:36:02.253Z,17.50
2023-01-22T03:38:47.089Z,21.88
2023-01-22T03:41:32.058Z,24.83
2023-01-22T03:44:15.564Z,20.75
2023-01-22T03:46:51.790Z,23.58
2023-01-22T03:49:24.017Z,18.27
2023-01-22T03:52:04.720Z,18.88
2023-01-22T03:54:42.306Z,18.88
2023-01-22T03:57:22.991Z,21.25
2023-01-22T04:00:16.249Z,23.13
2023-01-22T04:02:56.044Z,20.90
2023-01-22T04:05:47.233Z,20.48
2023-01-22T04:08:32.085Z,19.80
2023-01-22T04:11:19.271Z,21.30
2023-01-22T04:14:03.673Z,18.92
2023-01-22T04:16:47.105Z,21.38
2023-01-22T04:19:48.290Z,17.33
2023-01-22T04:23:02.305Z,19.83
2023-01-22T04:25:43.755Z,18.92
2023-01-22T04:28:21.427Z,21.25
2023-01-22T04:31:09.394Z,23.17
2023-01-22T04:34:12.349Z,18.40
2023-01-22T04:36:55.501Z,18.40
2023-01-22T04:39:42.424Z,22.02
2023-01-22T04:42:20.718Z,17.85
2023-01-22T04:44:58.452Z,17.05
2023-01-22T04:47:38.364Z,18.95
2023-01-22T04:50:42.266Z,20.30
2023-01-22T04:53:20.290Z,17.17
2023-01-22T04:56:07.114Z,16.70
2023-01-22T04:58:58.440Z,18.45
2023-01-22T05:01:42.235Z,17.83
2023-01-22T05:04:21.943Z,19.30
2023-01-22T05:07:13.682Z,17.92
2023-01-22T05:09:51.783Z,18.25
2023-01-22T05:12:28.029Z,18.45
2023-01-22T05:15:15.064Z,17.85
2023-01-22T05:18:14.328Z,19.10
2023-01-22T05:21:06.054Z,17.75
2023-01-22T05:23:44.881Z,17.77
2023-01-22T05:26:21.322Z,22.40
2023-01-22T05:29:19.451Z,18.77
2023-01-22T05:32:23.249Z,21.58
2023-01-22T05:35:06.592Z,23.75
2023-01-22T05:37:53.262Z,24.15
2023-01-22T05:40:39.237Z,20.27
2023-01-22T05:43:20.750Z,19.85
2023-01-22T05:46:08.965Z,21.80
2023-01-22T05:49:04.802Z,22.05
2023-01-22T05:51:50.690Z,17.45
2023-01-22T05:54:29.075Z,16.98
2023-01-22T05:57:13.481Z,18.42
2023-01-22T05:59:51.883Z,16.33
2023-01-22T06:02:38.274Z,18.55
2023-01-22T06:05:30.092Z,15.85
2023-01-22T06:08:17.091Z,16.42
2023-01-22T06:11:19.380Z,16.58
2023-01-22T06:14:00.346Z,13.50
2023-01-22T06:16:41.488Z,16.63
2023-01-22T06:19:43.253Z,13.43
2023-01-22T06:22:21.439Z,14.73
2023-01-22T06:25:04.651Z,15.60
2023-01-22T06:28:03.767Z,17.52
2023-01-22T06:30:42.463Z,13.65
2023-01-22T06:33:24.258Z,13.45
2023-01-22T06:36:07.123Z,15.85
2023-01-22T06:38:46.492Z,14.57
2023-01-22T06:41:35.416Z,16.95
2023-01-22T06:44:21.983Z,15.63
2023-01-22T06:47:01.502Z,15.35
2023-01-22T06:49:45.208Z,15.65
2023-01-22T06:52:29.738Z,18.40
2023-01-22T06:55:11.117Z,16.00
2023-01-22T07:00:45.992Z,21.08
2023-01-22T07:03:27.077Z,22.05
2023-01-22T07:06:10.281Z,17.98
2023-01-22T07:08:46.917Z,18.92
2023-01-22T07:11:37.564Z,17.80
2023-01-22T07:14:28.909Z,17.08
2023-01-22T07:17:22.926Z,18.50
2023-01-22T07:20:06.895Z,16.05
2023-01-22T07:22:44.947Z,17.98
2023-01-22T07:25:25.823Z,19.63
2023-01-22T07:28:13.661Z,24.98
2023-01-22T07:30:54.238Z,19.55
2023-01-22T07:33:34.746Z,18.83
2023-01-22T07:36:15.158Z,20.05
2023-01-22T07:38:59.835Z,24.83
2023-01-22T07:41:46.124Z,26.92
2023-01-22T07:44:26.699Z,35.03
2023-01-22T07:47:07.088Z,29.55
2023-01-22T07:49:50.647Z,24.75
2023-01-22T07:52:32.313Z,25.40
2023-01-22T07:57:47.269Z,19.52
2023-01-22T08:00:32.994Z,19.92
2023-01-22T08:03:22.058Z,20.48
2023-01-22T08:06:02.779Z,19.90
2023-01-22T08:08:45.669Z,17.17
2023-01-22T08:11:29.815Z,18.95
2023-01-22T08:14:07.949Z,20.30
2023-01-22T08:16:46.338Z,19.02
2023-01-22T08:19:35.367Z,18.42
2023-01-22T08:22:16.315Z,19.30
2023-01-22T08:24:54.639Z,19.55
2023-01-22T08:27:37.593Z,17.80
2023-01-22T08:30:16.399Z,17.13
2023-01-22T08:33:03.020Z,17.48
2023-01-22T08:35:43.993Z,19.33
2023-01-22T08:38:24.265Z,19.58
2023-01-22T08:41:01.892Z,15.98
2023-01-22T08:43:59.737Z,26.20
2023-01-22T08:46:43.635Z,25.45
2023-01-22T08:52:05.538Z,20.80
2023-01-22T08:54:50.209Z,20.30
2023-01-22T08:57:36.079Z,29.05
2023-01-22T09:00:20.214Z,37.38
2023-01-22T09:03:09.070Z,26.00
2023-01-22T09:05:47.290Z,25.77
2023-01-22T09:08:23.685Z,23.02
2023-01-22T09:11:08.927Z,29.38
2023-01-22T09:13:44.047Z,24.50
2023-01-22T09:16:22.347Z,24.20
2023-01-22T09:19:00.974Z,30.67
2023-01-22T09:21:38.548Z,24.85
2023-01-22T09:24:17.260Z,26.15
2023-01-22T09:26:50.363Z,32.20
2023-01-22T09:29:25.618Z,32.90
2023-01-22T09:31:58.996Z,24.05
2023-01-22T09:34:34.417Z,33.13
2023-01-22T09:37:14.385Z,27.75
2023-01-22T09:39:53.372Z,25.33
2023-01-22T09:42:35.241Z,30.67
2023-01-22T09:45:14.682Z,25.75
2023-01-22T09:48:02.875Z,25.10
2023-01-22T09:50:40.482Z,21.67
2023-01-22T09:53:23.151Z,32.28
2023-01-22T09:56:10.308Z,25.02
2023-01-22T09:58:54.676Z,38.95
2023-01-22T10:01:30.375Z,26.08
2023-01-22T10:04:43.320Z,26.17
2023-01-22T10:07:42.777Z,25.73
2023-01-22T10:10:43.250Z,33.90
2023-01-22T10:13:37.821Z,21.95
2023-01-22T10:16:22.484Z,22.08
2023-01-22T10:19:16.524Z,20.27
2023-01-22T10:22:01.886Z,21.83
2023-01-22T10:24:52.348Z,23.77
2023-01-22T10:27:46.992Z,27.50
2023-01-22T10:30:35.897Z,24.15
2023-01-22T10:33:21.537Z,24.08
2023-01-22T10:36:08.139Z,24.65
2023-01-22T10:38:49.045Z,36.95
2023-01-22T10:41:34.512Z,25.67
2023-01-22T10:44:16.819Z,23.58
2023-01-22T10:46:57.851Z,25.63
2023-01-22T10:49:38.997Z,21.98
2023-01-22T10:52:39.021Z,24.65
2023-01-22T10:55:34.937Z,22.25
2023-01-22T10:58:21.511Z,23.65
2023-01-22T11:01:20.367Z,24.60
2023-01-22T11:04:04.347Z,24.83
2023-01-22T11:09:42.095Z,24.13
2023-01-22T11:12:26.214Z,27.52
2023-01-22T11:15:11.410Z,27.30
2023-01-22T11:17:54.800Z,22.70
2023-01-22T11:20:51.152Z,22.73
2023-01-22T11:23:44.140Z,30.88
2023-01-22T11:26:26.515Z,30.15
2023-01-22T11:29:04.987Z,33.13
2023-01-22T11:32:04.258Z,23.77
2023-01-22T11:34:56.522Z,28.05
2023-01-22T11:37:55.739Z,33.50
2023-01-22T11:40:34.546Z,30.45
2023-01-22T11:43:34.359Z,29.13
2023-01-22T11:46:32.477Z,24.30
2023-01-22T11:49:27.035Z,23.38
2023-01-22T11:52:17.884Z,41.13
2023-01-22T11:55:18.519Z,26.60
2023-01-22T11:58:17.580Z,26.63
2023-01-22T12:01:00.016Z,24.58
2023-01-22T12:03:58.786Z,27.83
2023-01-22T12:06:50.400Z,32.33
2023-01-22T12:09:37.364Z,25.60
2023-01-22T12:12:51.574Z,31.10
2023-01-22T12:15:57.049Z,23.52
2023-01-22T12:18:39.387Z,39.08
2023-01-22T12:21:51.200Z,41.15
2023-01-22T12:24:53.027Z,41.35
2023-01-22T12:27:42.621Z,34.13
2023-01-22T12:30:36.074Z,29.60
2023-01-22T12:33:24.042Z,40.30
2023-01-22T12:36:01.639Z,30.25
2023-01-22T12:38:47.220Z,31.17
2023-01-22T12:42:06.828Z,24.10
2023-01-22T12:44:51.865Z,24.17
2023-01-22T12:47:34.994Z,24.05
2023-01-22T12:50:22.375Z,25.52
2023-01-22T12:53:06.302Z,29.38
2023-01-22T12:55:44.336Z,30.35
2023-01-22T12:58:39.613Z,30.17
2023-01-22T13:01:14.512Z,28.77
2023-01-22T13:04:08.461Z,27.77
2023-01-22T13:06:47.013Z,30.42
2023-01-22T13:09:39.746Z,24.75
2023-01-22T13:12:45.494Z,27.25
2023-01-22T13:15:28.981Z,30.80
2023-01-22T13:18:23.648Z,34.22
2023-01-22T13:21:16.915Z,31.30
2023-01-22T13:24:02.300Z,35.17
2023-01-22T13:26:41.594Z,32.70
2023-01-22T13:29:28.774Z,36.92
2023-01-22T13:32:06.474Z,38.03
2023-01-22T13:34:41.666Z,37.15
2023-01-22T13:37:52.323Z,34.08
2023-01-22T13:40:50.690Z,32.50
2023-01-22T13:43:27.742Z,34.88
2023-01-22T13:46:06.287Z,35.83
2023-01-22T13:48:45.429Z,33.50
2023-01-22T13:51:32.693Z,37.35
2023-01-22T13:54:28.476Z,36.35
2023-01-22T13:57:15.250Z,33.40
2023-01-22T14:00:15.986Z,38.72
2023-01-22T14:02:51.816Z,42.47
2023-01-22T14:05:32.232Z,37.60
2023-01-22T14:08:39.506Z,41.00
2023-01-22T14:11:12.366Z,39.72
2023-01-22T14:13:52.082Z,35.72
2023-01-22T14:16:33.040Z,33.50
2023-01-22T14:19:13.882Z,36.05
2023-01-22T14:21:53.824Z,35.72
2023-01-22T14:24:36.704Z,36.28
2023-01-22T14:27:41.900Z,35.28
2023-01-22T14:30:19.842Z,40.47
2023-01-22T14:32:56.018Z,44.63
2023-01-22T14:35:33.097Z,48.10
2023-01-22T14:38:10.622Z,42.38
2023-01-22T14:40:51.798Z,39.70
2023-01-22T14:43:34.755Z,41.15
2023-01-22T14:46:21.283Z,40.30
2023-01-22T14:49:02.064Z,46.15
2023-01-22T14:51:42.943Z,41.20
2023-01-22T14:54:18.591Z,41.85
2023-01-22T14:57:06.970Z,45.00
2023-01-22T14:59:46.770Z,42.22
2023-01-22T15:02:27.436Z,55.60
2023-01-22T15:05:05.030Z,46.40
2023-01-22T15:07:46.416Z,47.47
2023-01-22T15:10:27.950Z,54.03
2023-01-22T15:13:08.397Z,52.60
2023-01-22T15:15:52.452Z,55.47
2023-01-22T15:18:30.064Z,47.03
2023-01-22T15:21:08.128Z,58.65
2023-01-22T15:23:51.904Z,59.05
2023-01-22T15:26:39.632Z,60.72
2023-01-22T15:29:20.092Z,71.35
2023-01-22T15:31:58.138Z,58.85
2023-01-22T15:34:37.137Z,60.45
2023-01-22T15:37:18.688Z,61.67
2023-01-22T15:40:09.757Z,63.45
2023-01-22T15:42:49.425Z,63.08
2023-01-22T15:45:33.444Z,60.55
2023-01-22T15:48:11.971Z,57.58
2023-01-22T15:50:52.908Z,57.97
2023-01-22T15:53:39.182Z,54.00
2023-01-22T15:56:12.549Z,57.90
2023-01-22T15:58:51.431Z,53.75
2023-01-22T16:01:32.804Z,56.95
2023-01-22T16:04:18.435Z,46.63
2023-01-22T16:06:55.329Z,47.50
2023-01-22T16:09:32.868Z,55.95
2023-01-22T16:12:16.092Z,51.95
2023-01-22T16:14:53.777Z,48.65
2023-01-22T16:17:32.016Z,52.95
2023-01-22T16:20:10.055Z,56.25
2023-01-22T16:22:51.892Z,57.50
2023-01-22T16:25:25.519Z,68.22
2023-01-22T16:30:51.323Z,62.63
2023-01-22T16:33:45.808Z,71.22
2023-01-22T16:36:37.419Z,66.35
2023-01-22T16:39:10.358Z,70.80
2023-01-22T16:41:57.184Z,64.95
2023-01-22T16:44:33.326Z,65.95
2023-01-22T16:47:13.990Z,78.15
2023-01-22T16:49:56.974Z,81.18
2023-01-22T16:52:33.235Z,90.80
2023-01-22T16:55:18.145Z,89.28
2023-01-22T16:57:54.232Z,79.20
2023-01-22T17:00:35.313Z,76.47
2023-01-22T17:03:06.437Z,67.80
2023-01-22T17:05:43.207Z,64.50
2023-01-22T17:08:16.448Z,69.40
2023-01-22T17:10:55.592Z,71.60
2023-01-22T17:13:31.397Z,61.35
2023-01-22T17:16:10.078Z,69.18
2023-01-22T17:18:48.415Z,56.50
2023-01-22T17:21:17.988Z,51.75
2023-01-22T17:23:54.658Z,48.13
2023-01-22T17:26:35.246Z,54.45
2023-01-22T17:29:13.591Z,44.20
2023-01-22T17:31:57.543Z,45.83
2023-01-22T17:34:37.526Z,47.30
2023-01-22T17:37:15.601Z,46.90
2023-01-22T17:40:01.441Z,48.15
2023-01-22T17:42:44.520Z,48.88
2023-01-22T17:45:22.843Z,46.38
2023-01-22T17:48:03.604Z,42.70
2023-01-22T17:50:38.290Z,48.90
2023-01-22T17:53:22.963Z,46.80
2023-01-22T17:56:09.543Z,46.35
2023-01-22T17:58:51.532Z,46.92
2023-01-22T18:01:49.131Z,44.70
2023-01-22T18:04:32.941Z,43.17
2023-01-22T18:07:16.723Z,41.33
2023-01-22T18:09:58.003Z,41.20
2023-01-22T18:12:30.963Z,42.13
2023-01-22T18:15:10.728Z,43.22
2023-01-22T18:17:49.456Z,44.85
2023-01-22T18:20:33.247Z,46.83
2023-01-22T18:23:20.810Z,48.17
2023-01-22T18:26:06.113Z,42.55
2023-01-22T18:28:42.628Z,44.60
2023-01-22T18:31:17.843Z,43.88
2023-01-22T18:33:54.351Z,47.55
2023-01-22T18:36:29.573Z,43.67
2023-01-22T18:39:18.886Z,45.63
2023-01-22T18:41:59.423Z,44.63
2023-01-22T18:44:32.148Z,62.40
2023-01-22T18:47:18.008Z,60.03
2023-01-22T18:49:52.698Z,55.67
2023-01-22T18:52:37.166Z,51.97
2023-01-22T18:55:12.469Z,54.38
2023-01-22T18:58:21.643Z,52.28
2023-01-22T19:00:53.935Z,50.55
2023-01-22T19:03:34.602Z,51.53
2023-01-22T19:06:16.298Z,47.30
2023-01-22T19:09:02.923Z,54.13
2023-01-22T19:11:47.217Z,57.28
2023-01-22T19:14:27.279Z,51.53
2023-01-22T19:17:08.228Z,57.00
2023-01-22T19:19:46.372Z,44.85
2023-01-22T19:22:24.535Z,59.55
2023-01-22T19:25:05.193Z,63.78
2023-01-22T19:27:46.021Z,66.95
2023-01-22T19:30:26.669Z,72.85
2023-01-22T19:33:04.716Z,71.20
2023-01-22T19:35:50.678Z,70.82
2023-01-22T19:38:25.249Z,78.85
2023-01-22T19:41:09.229Z,75.18
2023-01-22T19:43:49.673Z,70.03
2023-01-22T19:46:33.206Z,60.77
2023-01-22T19:49:15.230Z,61.97
2023-01-22T19:51:58.609Z,59.70
2023-01-22T19:54:34.059Z,49.55
2023-01-22T19:57:12.467Z,47.92
2023-01-22T20:00:00.179Z,53.92
2023-01-22T20:02:33.074Z,70.53
2023-01-22T20:05:06.146Z,59.35
2023-01-22T20:07:48.951Z,65.50
2023-01-22T20:10:26.987Z,90.60
2023-01-22T20:13:05.554Z,73.32
2023-01-22T20:15:47.810Z,58.78
2023-01-22T20:18:28.837Z,57.78
2023-01-22T20:21:04.348Z,55.42
2023-01-22T20:23:46.373Z,59.67
2023-01-22T20:26:27.712Z,62.20
2023-01-22T20:29:02.253Z,80.75
2023-01-22T20:31:38.260Z,81.90
2023-01-22T20:34:18.107Z,92.32
2023-01-22T20:36:53.136Z,75.85
2023-01-22T20:39:38.826Z,72.70
2023-01-22T20:42:11.724Z,62.15
2023-01-22T20:44:52.647Z,69.38
2023-01-22T20:47:36.596Z,65.95
2023-01-22T20:50:26.049Z,65.47
2023-01-22T20:53:10.382Z,73.28
2023-01-22T20:55:59.357Z,75.72
2023-01-22T20:58:33.040Z,69.70
2023-01-22T21:01:18.834Z,68.72
2023-01-22T21:03:54.428Z,101.75
2023-01-22T21:06:34.139Z,73.32
2023-01-22T21:09:15.965Z,71.53
2023-01-22T21:11:56.619Z,69.65
2023-01-22T21:14:37.196Z,68.90
2023-01-22T21:17:18.917Z,73.78
2023-01-22T21:19:58.293Z,67.18
2023-01-22T21:22:35.313Z,68.97
2023-01-22T21:25:18.829Z,69.88
2023-01-22T21:27:56.849Z,68.15
2023-01-22T21:30:35.703Z,64.30
2023-01-22T21:33:21.065Z,64.78
2023-01-22T21:36:05.132Z,61.78
2023-01-22T21:38:52.869Z,77.50
2023-01-22T21:41:33.876Z,84.45
2023-01-22T21:44:23.080Z,124.80
2023-01-22T21:46:55.435Z,100.30
2023-01-22T21:49:39.015Z,127.47
2023-01-22T21:52:20.261Z,114.50
2023-01-22T21:55:01.166Z,97.28
2023-01-22T21:57:41.924Z,107.95
2023-01-22T22:00:28.635Z,111.95
2023-01-22T22:05:44.652Z,133.13
2023-01-22T22:08:22.401Z,106.78
2023-01-22T22:11:03.843Z,98.10
2023-01-22T22:13:46.906Z,100.82
2023-01-22T22:16:33.558Z,97.80
2023-01-22T22:21:47.290Z,96.03
2023-01-22T22:24:32.187Z,77.32
2023-01-22T22:27:18.589Z,87.57
2023-01-22T22:29:54.816Z,89.28
2023-01-22T22:32:30.566Z,106.30
2023-01-22T22:35:20.142Z,93.82
2023-01-22T22:37:58.806Z,99.63
2023-01-22T22:40:39.600Z,81.20
2023-01-22T22:43:26.220Z,94.10
2023-01-22T22:46:26.438Z,85.18
2023-01-22T22:49:00.833Z,82.13
2023-01-22T22:51:41.047Z,77.18
2023-01-22T22:54:23.382Z,88.97
2023-01-22T22:57:05.895Z,81.53
2023-01-22T22:59:47.022Z,76.25
2023-01-22T23:02:29.405Z,74.18
2023-01-22T23:05:06.960Z,86.68
2023-01-22T23:07:50.559Z,70.38
2023-01-22T23:10:34.132Z,68.50
2023-01-22T23:13:13.121Z,72.20
2023-01-22T23:16:01.575Z,61.50
2023-01-22T23:18:38.693Z,80.93
2023-01-22T23:21:20.437Z,77.57
2023-01-22T23:24:06.667Z,67.38
2023-01-22T23:26:42.698Z,63.33
2023-01-22T23:29:29.565Z,67.57
2023-01-22T23:32:12.623Z,60.33
2023-01-22T23:34:45.329Z,56.00
2023-01-22T23:37:33.918Z,41.72
2023-01-22T23:40:10.718Z,53.90
2023-01-22T23:43:00.525Z,59.17
2023-01-22T23:45:44.830Z,67.93
2023-01-22T23:48:17.620Z,72.63
2023-01-22T23:51:02.783Z,70.32
2023-01-22T23:53:51.957Z,79.45
2023-01-22T23:56:33.213Z,92.32
2023-01-22T23:59:11.783Z,74.63
